Time;durP1;ratioP1;P1;durP2;ratioP2;P2;SDS_P1;SDS_P2;PMS_P1;PMS_P2;Temp;Humidity;BMP_temperature;BMP_pressure;BME280_temperature;BME280_humidity;BME280_pressure;Samples;Min_cycle;Max_cycle;Signal;HPM_P1;HPM_P2
2024/02/02 00:01:35;;;;;;;9.80;0.50;;;5.30;99.90;;;;;;6301689;22;20003;-89
2024/02/02 00:04:04;;;;;;;5.05;0.60;;;5.30;99.90;;;;;;6302583;22;20015;-91
2024/02/02 00:06:30;;;;;;;9.30;0.68;;;5.30;99.90;;;;;;6301694;22;20112;-90
2024/02/02 00:08:55;;;;;;;6.43;0.55;;;5.30;99.90;;;;;;6303533;22;20046;-90
2024/02/02 00:11:22;;;;;;;6.65;0.52;;;5.30;99.90;;;;;;6304255;22;20059;-90
2024/02/02 00:13:48;;;;;;;6.00;0.60;;;5.30;99.90;;;;;;6304469;22;20093;-91
2024/02/02 00:16:13;;;;;;;6.05;0.60;;;5.30;99.90;;;;;;6329450;22;20042;-91
2024/02/02 00:18:39;;;;;;;8.52;0.50;;;5.30;99.90;;;;;;6303834;22;20010;-90
2024/02/02 00:21:05;;;;;;;6.30;0.47;;;5.30;99.90;;;;;;6329681;22;20057;-91
2024/02/02 00:23:31;;;;;;;3.58;0.50;;;5.30;99.90;;;;;;6303719;22;20038;-90
2024/02/02 00:25:56;;;;;;;3.33;0.50;;;5.30;99.90;;;;;;6304104;22;20010;-91
2024/02/02 00:28:22;;;;;;;5.93;0.63;;;5.30;99.90;;;;;;6329790;22;19999;-92
2024/02/02 00:30:48;;;;;;;5.07;0.77;;;5.20;99.90;;;;;;6303751;22;20003;-90
2024/02/02 00:33:14;;;;;;;4.88;0.43;;;5.30;99.90;;;;;;6329635;22;20007;-90
2024/02/02 00:35:40;;;;;;;6.45;0.70;;;5.30;99.90;;;;;;6304026;22;20060;-91
2024/02/02 00:38:05;;;;;;;8.18;0.63;;;5.30;99.90;;;;;;6329667;22;20038;-92
2024/02/02 00:40:31;;;;;;;9.65;0.80;;;5.30;99.90;;;;;;6303395;22;20040;-91
2024/02/02 00:42:57;;;;;;;8.13;0.95;;;5.40;99.90;;;;;;6303993;22;20019;-90
2024/02/02 00:45:23;;;;;;;7.78;0.70;;;5.30;99.90;;;;;;6303432;22;20003;-89
2024/02/02 00:47:49;;;;;;;10.98;1.45;;;5.30;99.90;;;;;;6304001;22;20062;-90
2024/02/02 00:50:15;;;;;;;16.00;2.58;;;5.40;99.90;;;;;;6328927;22;20053;-90
2024/02/02 00:52:41;;;;;;;15.45;2.58;;;5.40;99.90;;;;;;6329614;22;20011;-90
2024/02/02 00:55:07;;;;;;;13.20;2.08;;;5.40;99.90;;;;;;6303724;22;20038;-89
2024/02/02 00:57:33;;;;;;;18.48;3.15;;;5.40;99.90;;;;;;6303356;22;20049;-90
2024/02/02 00:59:58;;;;;;;10.68;2.08;;;5.50;99.90;;;;;;6303792;22;20061;-89
2024/02/02 01:02:24;;;;;;;17.30;2.55;;;5.40;99.90;;;;;;6302992;22;20019;-90
2024/02/02 01:04:50;;;;;;;12.60;2.20;;;5.40;99.90;;;;;;6303608;22;20011;-90
2024/02/02 01:07:16;;;;;;;15.25;3.35;;;5.40;99.90;;;;;;6303568;22;20450;-89
2024/02/02 01:09:45;;;;;;;10.38;1.63;;;5.40;99.90;;;;;;6329715;22;20424;-90
2024/02/02 01:12:11;;;;;;;13.85;2.75;;;5.40;99.90;;;;;;6329169;22;20003;-90
2024/02/02 01:14:40;;;;;;;9.73;1.90;;;5.40;99.90;;;;;;6303851;22;20049;-89
2024/02/02 01:17:09;;;;;;;6.70;1.35;;;5.40;99.90;;;;;;6303805;22;19999;-90
2024/02/02 01:19:38;;;;;;;6.90;1.27;;;5.40;99.90;;;;;;6303272;22;20016;-88
2024/02/02 01:22:04;;;;;;;8.88;1.65;;;5.40;99.90;;;;;;6303152;22;20010;-89
2024/02/02 01:24:31;;;;;;;10.35;1.55;;;5.40;99.90;;;;;;6303787;22;20015;-91
2024/02/02 01:26:56;;;;;;;7.07;1.50;;;5.40;99.90;;;;;;6302941;22;20219;-90
2024/02/02 01:29:25;;;;;;;5.88;2.05;;;5.40;99.90;;;;;;6303353;22;20008;-92
2024/02/02 01:31:51;;;;;;;11.75;1.20;;;5.40;99.90;;;;;;6303376;22;20906;-93
2024/02/02 01:34:17;;;;;;;11.30;1.48;;;5.40;99.90;;;;;;6302682;22;20011;-92
2024/02/02 01:36:43;;;;;;;8.13;1.60;;;5.40;99.90;;;;;;6329576;22;20523;-92
2024/02/02 01:39:11;;;;;;;11.07;1.70;;;5.40;99.90;;;;;;6303999;22;20090;-90
2024/02/02 01:41:38;;;;;;;9.55;1.25;;;5.40;99.90;;;;;;6303611;22;20011;-91
2024/02/02 01:44:05;;;;;;;9.73;1.60;;;5.40;99.90;;;;;;6329099;22;20019;-91
2024/02/02 01:46:31;;;;;;;14.25;1.67;;;5.40;99.90;;;;;;6329133;22;19999;-92
2024/02/02 01:48:57;;;;;;;10.07;1.42;;;5.40;99.90;;;;;;6302889;22;20064;-90
2024/02/02 01:51:24;;;;;;;8.25;1.63;;;5.40;99.90;;;;;;6303136;22;20478;-90
2024/02/02 01:53:50;;;;;;;12.90;1.58;;;5.40;99.90;;;;;;6302984;22;20003;-93
2024/02/02 01:56:16;;;;;;;11.63;1.67;;;5.40;99.90;;;;;;6302723;22;20013;-91
2024/02/02 01:58:42;;;;;;;7.43;1.40;;;5.50;99.90;;;;;;6302943;22;20090;-91
2024/02/02 02:01:08;;;;;;;12.10;1.67;;;5.50;99.90;;;;;;6303102;22;20053;-93
2024/02/02 02:03:33;;;;;;;11.95;2.58;;;5.50;99.90;;;;;;6302709;22;20054;-93
2024/02/02 02:06:00;;;;;;;11.52;2.35;;;5.50;99.90;;;;;;6303060;22;20062;-91
2024/02/02 02:08:26;;;;;;;11.32;2.72;;;5.50;99.90;;;;;;6302545;22;20007;-94
2024/02/02 02:10:52;;;;;;;15.18;3.45;;;5.50;99.90;;;;;;6303371;22;20148;-92
2024/02/02 02:13:18;;;;;;;10.00;2.17;;;5.50;99.90;;;;;;6303354;22;20547;-91
2024/02/02 02:15:44;;;;;;;12.18;2.25;;;5.60;99.90;;;;;;6303969;22;20089;-91
2024/02/02 02:18:09;;;;;;;10.50;2.70;;;5.50;99.90;;;;;;6328855;22;20011;-89
2024/02/02 02:20:36;;;;;;;13.00;2.80;;;5.50;99.90;;;;;;6302788;22;20035;-92
2024/02/02 02:23:03;;;;;;;12.60;3.03;;;5.60;99.90;;;;;;6303838;22;20122;-93
2024/02/02 02:25:29;;;;;;;10.35;1.70;;;5.50;99.90;;;;;;6302468;22;20090;-93
2024/02/02 02:27:55;;;;;;;8.90;2.28;;;5.50;99.90;;;;;;6303448;22;20431;-92
2024/02/02 02:30:21;;;;;;;9.57;1.77;;;5.50;99.90;;;;;;6302294;22;20014;-92
2024/02/02 02:32:46;;;;;;;10.65;2.08;;;5.60;99.90;;;;;;6302611;22;20335;-91
2024/02/02 02:35:12;;;;;;;9.48;2.40;;;5.60;99.90;;;;;;6302669;22;20061;-91
2024/02/02 02:37:39;;;;;;;10.23;1.85;;;5.60;99.90;;;;;;6302782;22;20007;-91
2024/02/02 02:40:05;;;;;;;12.48;2.47;;;5.50;99.90;;;;;;6303016;22;20031;-94
2024/02/02 02:42:31;;;;;;;11.35;2.38;;;5.60;99.90;;;;;;6302768;22;20015;-93
2024/02/02 02:44:57;;;;;;;5.15;1.20;;;5.60;99.90;;;;;;6303133;22;20173;-93
2024/02/02 02:47:23;;;;;;;5.35;1.40;;;5.50;99.90;;;;;;6301887;22;20265;-93
2024/02/02 02:49:49;;;;;;;9.98;1.60;;;5.60;99.90;;;;;;6302126;22;20011;-93
2024/02/02 02:52:14;;;;;;;7.55;2.00;;;5.50;99.90;;;;;;6276748;22;19999;-93
2024/02/02 02:54:40;;;;;;;6.28;1.48;;;5.50;99.90;;;;;;6302936;22;20037;-93
2024/02/02 02:57:06;;;;;;;12.38;3.40;;;5.50;99.90;;;;;;6304873;22;20003;-94
2024/02/02 02:59:32;;;;;;;7.70;1.70;;;5.50;99.90;;;;;;6302385;22;20459;-93
2024/02/02 03:01:58;;;;;;;5.85;1.90;;;5.50;99.90;;;;;;6303221;22;20094;-95
2024/02/02 03:04:24;;;;;;;10.18;1.95;;;5.50;99.90;;;;;;6303422;22;20403;-93
2024/02/02 03:06:50;;;;;;;9.80;1.70;;;5.50;99.90;;;;;;6302770;22;20459;-94
2024/02/02 03:09:16;;;;;;;8.35;1.60;;;5.60;99.90;;;;;;6302759;22;20014;-92
2024/02/02 03:11:42;;;;;;;9.27;2.63;;;5.50;99.90;;;;;;6304789;22;20034;-94
2024/02/02 03:14:08;;;;;;;9.60;2.25;;;5.60;99.90;;;;;;6303005;22;20439;-93
2024/02/02 03:16:34;;;;;;;11.68;3.08;;;5.50;99.90;;;;;;6302463;22;20018;-90
2024/02/02 03:18:59;;;;;;;13.02;3.05;;;5.50;99.90;;;;;;6304002;22;20342;-93
2024/02/02 03:21:25;;;;;;;10.52;3.13;;;5.50;99.90;;;;;;6302870;22;20386;-92
2024/02/02 03:23:51;;;;;;;10.35;3.22;;;5.60;99.90;;;;;;6302920;22;20018;-95
2024/02/02 03:26:16;;;;;;;9.45;2.42;;;5.50;99.90;;;;;;6303878;22;20003;-94
2024/02/02 03:28:42;;;;;;;16.42;5.07;;;5.50;99.90;;;;;;6304567;22;20014;-95
2024/02/02 03:31:08;;;;;;;9.55;3.83;;;5.50;99.90;;;;;;6305350;22;20014;-93
2024/02/02 03:33:34;;;;;;;12.60;4.03;;;5.60;99.90;;;;;;6302557;22;20011;-93
2024/02/02 03:36:00;;;;;;;18.20;5.07;;;5.50;99.90;;;;;;6304445;22;20086;-93
2024/02/02 03:38:26;;;;;;;11.27;4.07;;;5.50;99.90;;;;;;6302327;22;20014;-94
2024/02/02 03:40:51;;;;;;;12.63;4.13;;;5.50;99.90;;;;;;6303075;22;19999;-91
2024/02/02 03:43:17;;;;;;;18.55;6.75;;;5.50;99.90;;;;;;6305039;22;20012;-95
2024/02/02 03:45:43;;;;;;;15.13;5.35;;;5.50;99.90;;;;;;6304929;22;20130;-90
2024/02/02 03:48:09;;;;;;;13.23;4.70;;;5.40;99.90;;;;;;6304191;22;20011;-94
2024/02/02 03:50:35;;;;;;;13.95;5.18;;;5.40;99.90;;;;;;6305296;22;20010;-92
2024/02/02 03:53:00;;;;;;;12.60;5.45;;;5.40;99.90;;;;;;6278679;22;20007;-91
2024/02/02 03:55:27;;;;;;;12.65;5.00;;;5.40;99.90;;;;;;6304818;22;20330;-91
2024/02/02 03:57:53;;;;;;;8.60;4.30;;;5.40;99.90;;;;;;6304413;22;20007;-94
2024/02/02 04:00:19;;;;;;;17.02;4.97;;;5.40;99.90;;;;;;6304841;22;20501;-92
2024/02/02 04:02:47;;;;;;;11.30;3.92;;;5.40;99.90;;;;;;6304039;22;20011;-91
2024/02/02 04:05:15;;;;;;;9.45;4.05;;;5.40;99.90;;;;;;6304415;22;20031;-92
2024/02/02 04:07:42;;;;;;;13.00;3.95;;;5.40;99.90;;;;;;6330121;22;20014;-93
2024/02/02 04:10:09;;;;;;;14.35;3.95;;;5.40;99.90;;;;;;6304490;22;20007;-93
2024/02/02 04:12:35;;;;;;;16.75;4.03;;;5.40;99.90;;;;;;6304136;22;20015;-93
2024/02/02 04:15:00;;;;;;;13.15;3.83;;;5.30;99.90;;;;;;6304811;22;20432;-92
2024/02/02 04:17:26;;;;;;;10.55;3.75;;;5.40;99.90;;;;;;6303461;22;20018;-94
2024/02/02 04:19:52;;;;;;;9.07;3.20;;;5.30;99.90;;;;;;6304123;22;20094;-93
2024/02/02 04:22:18;;;;;;;11.50;3.20;;;5.30;99.90;;;;;;6303919;22;20011;-91
2024/02/02 04:24:44;;;;;;;11.55;4.75;;;5.40;99.90;;;;;;6304170;22;20394;-91
2024/02/02 04:27:10;;;;;;;10.40;3.72;;;5.30;99.90;;;;;;6303739;22;20007;-91
2024/02/02 04:29:36;;;;;;;11.40;4.43;;;5.30;99.90;;;;;;6305154;22;20007;-93
2024/02/02 04:32:02;;;;;;;9.38;3.75;;;5.30;99.90;;;;;;6304677;22;20585;-93
2024/02/02 04:34:28;;;;;;;13.32;4.25;;;5.30;99.90;;;;;;6304055;22;20015;-91
2024/02/02 04:36:54;;;;;;;12.43;3.22;;;5.30;99.90;;;;;;6304264;22;20378;-92
2024/02/02 04:39:20;;;;;;;10.02;2.78;;;5.30;99.90;;;;;;6303635;22;20003;-91
2024/02/02 04:41:46;;;;;;;12.50;3.38;;;5.30;99.90;;;;;;6303767;22;20090;-92
2024/02/02 04:44:11;;;;;;;14.55;3.30;;;5.30;99.90;;;;;;6303455;22;20019;-92
2024/02/02 04:46:37;;;;;;;10.77;3.05;;;5.30;99.90;;;;;;6303879;22;20011;-91
2024/02/02 04:49:03;;;;;;;13.38;3.35;;;5.30;99.90;;;;;;6303948;22;20245;-92
2024/02/02 04:51:29;;;;;;;7.10;2.58;;;5.30;99.90;;;;;;6303990;22;20783;-91
2024/02/02 04:53:54;;;;;;;8.18;3.13;;;5.40;99.90;;;;;;6303710;22;20063;-91
2024/02/02 04:56:20;;;;;;;8.52;2.78;;;5.40;99.90;;;;;;6303453;22;20007;-91
2024/02/02 04:58:46;;;;;;;13.02;2.92;;;5.40;99.90;;;;;;6304059;22;20111;-91
2024/02/02 05:01:12;;;;;;;15.88;3.95;;;5.40;99.90;;;;;;6303605;22;20074;-90
2024/02/02 05:03:38;;;;;;;13.48;3.63;;;5.40;99.90;;;;;;6303703;22;20011;-91
2024/02/02 05:06:04;;;;;;;9.40;3.90;;;5.40;99.90;;;;;;6304114;22;20427;-91
2024/02/02 05:08:33;;;;;;;9.65;3.38;;;5.40;99.90;;;;;;6329050;22;20018;-93
2024/02/02 05:10:58;;;;;;;14.27;2.90;;;5.40;99.90;;;;;;6303405;22;20003;-90
2024/02/02 05:13:24;;;;;;;12.70;3.35;;;5.40;99.90;;;;;;6303845;22;20007;-92
2024/02/02 05:15:50;;;;;;;11.82;3.20;;;5.30;99.90;;;;;;6303934;22;20007;-90
2024/02/02 05:18:16;;;;;;;10.38;2.92;;;5.30;99.90;;;;;;6302963;22;20003;-91
2024/02/02 05:20:41;;;;;;;17.67;3.47;;;5.30;99.90;;;;;;6304244;22;20042;-91
2024/02/02 05:23:07;;;;;;;12.10;3.25;;;5.30;99.90;;;;;;6304418;22;20026;-90
2024/02/02 05:25:34;;;;;;;10.93;2.95;;;5.30;99.90;;;;;;6303517;22;20483;-92
2024/02/02 05:28:00;;;;;;;12.68;3.00;;;5.30;99.90;;;;;;6301082;22;20451;-91
2024/02/02 05:30:27;;;;;;;7.75;2.60;;;5.30;99.90;;;;;;6303081;22;20003;-91
2024/02/02 05:32:53;;;;;;;15.02;3.25;;;5.30;99.90;;;;;;6303715;22;20037;-92
2024/02/02 05:35:18;;;;;;;14.73;2.92;;;5.30;99.90;;;;;;6302747;22;20003;-91
2024/02/02 05:37:44;;;;;;;14.88;2.78;;;5.20;99.90;;;;;;6303642;22;20094;-90
2024/02/02 05:40:10;;;;;;;8.90;2.55;;;5.20;99.90;;;;;;6303126;22;20014;-90
2024/02/02 05:42:36;;;;;;;12.90;2.70;;;5.30;99.90;;;;;;6303074;22;20117;-91
2024/02/02 05:45:02;;;;;;;11.38;1.92;;;5.30;99.90;;;;;;6303269;22;20007;-92
2024/02/02 05:47:28;;;;;;;7.50;1.73;;;5.20;99.90;;;;;;6302862;22;20011;-93
2024/02/02 05:49:54;;;;;;;9.77;2.30;;;5.30;99.90;;;;;;6302878;22;20098;-92
2024/02/02 05:52:19;;;;;;;10.25;2.80;;;5.30;99.90;;;;;;6303110;22;20418;-92
2024/02/02 05:54:45;;;;;;;10.27;2.63;;;5.30;99.90;;;;;;6302985;22;20355;-89
2024/02/02 05:57:11;;;;;;;11.75;3.08;;;5.20;99.90;;;;;;6302049;22;20018;-90
2024/02/02 05:59:37;;;;;;;11.43;2.90;;;5.20;99.90;;;;;;6303133;22;20010;-91
2024/02/02 06:02:03;;;;;;;9.38;2.45;;;5.30;99.90;;;;;;6303037;22;20009;-89
2024/02/02 06:04:29;;;;;;;10.27;2.90;;;5.30;99.90;;;;;;6328719;22;20015;-91
2024/02/02 06:07:15;;;;;;;8.98;2.60;;;5.30;99.90;;;;;;6329233;22;20056;-90
2024/02/02 06:10:01;;;;;;;13.40;2.70;;;5.30;99.90;;;;;;6305695;22;20042;-88
2024/02/02 06:12:27;;;;;;;14.45;2.20;;;5.20;99.90;;;;;;6302425;22;20018;-92
2024/02/02 06:14:53;;;;;;;9.25;2.25;;;5.10;99.90;;;;;;6303009;22;20003;-91
2024/02/02 06:17:18;;;;;;;11.50;3.03;;;5.10;99.90;;;;;;6302339;22;20022;-90
2024/02/02 06:19:44;;;;;;;8.43;2.22;;;5.10;99.90;;;;;;6302599;22;20007;-90
2024/02/02 06:22:10;;;;;;;7.68;2.45;;;5.00;99.90;;;;;;6304211;22;20098;-90
2024/02/02 06:24:36;;;;;;;8.73;2.10;;;5.00;99.90;;;;;;6285862;22;20102;-92
2024/02/02 06:27:02;;;;;;;9.20;1.77;;;5.00;99.90;;;;;;6290222;22;20380;-92
2024/02/02 06:29:28;;;;;;;10.50;2.08;;;4.90;99.90;;;;;;6290210;22;20273;-91
2024/02/02 06:31:53;;;;;;;5.53;1.67;;;5.00;99.90;;;;;;6290911;22;20018;-90
2024/02/02 06:34:22;;;;;;;11.52;2.85;;;5.00;99.90;;;;;;6289687;22;20018;-91
2024/02/02 06:36:47;;;;;;;7.25;2.28;;;5.00;99.90;;;;;;6290500;22;20007;-90
2024/02/02 06:39:33;;;;;;;8.57;1.45;;;5.00;99.90;;;;;;6290081;22;20110;-90
2024/02/02 06:41:59;;;;;;;4.70;1.13;;;4.90;99.90;;;;;;6264681;22;20038;-91
2024/02/02 06:44:25;;;;;;;8.68;2.00;;;4.90;99.90;;;;;;6290782;22;20050;-90
2024/02/02 06:46:51;;;;;;;6.35;1.67;;;5.00;99.90;;;;;;6289628;22;20011;-90
2024/02/02 06:49:16;;;;;;;11.70;2.50;;;5.10;99.90;;;;;;6290010;22;20023;-91
2024/02/02 06:51:42;;;;;;;12.32;3.10;;;5.00;99.90;;;;;;6289857;22;20042;-91
2024/02/02 06:54:08;;;;;;;11.10;2.22;;;5.00;99.90;;;;;;6290929;22;20009;-91
2024/02/02 06:56:42;;;;;;;6.78;1.73;;;5.00;99.90;;;;;;6289275;22;20015;-90
2024/02/02 06:59:11;;;;;;;18.15;2.80;;;4.90;99.90;;;;;;6300970;22;19999;-87
2024/02/02 07:01:38;;;;;;;11.02;2.05;;;5.00;99.90;;;;;;6301315;22;20141;-89
2024/02/02 07:04:14;;;;;;;9.70;2.60;;;5.00;99.90;;;;;;6328521;22;20025;-89
2024/02/02 07:06:41;;;;;;;11.25;2.78;;;5.00;99.90;;;;;;6328428;22;20044;-90
2024/02/02 07:09:23;;;;;;;14.70;3.00;;;5.00;99.90;;;;;;6329076;22;20011;-91
2024/02/02 07:11:56;;;;;;;9.57;2.53;;;5.00;99.90;;;;;;6276705;22;20073;-90
2024/02/02 07:14:39;;;;;;;12.13;2.45;;;5.00;99.90;;;;;;6302237;22;20007;-92
2024/02/02 07:17:16;;;;;;;9.98;2.15;;;5.00;99.90;;;;;;6275920;22;20003;-91
2024/02/02 07:19:42;;;;;;;9.77;2.97;;;5.00;99.90;;;;;;6276843;22;20011;-90
2024/02/02 07:22:31;;;;;;;10.68;1.90;;;5.00;99.90;;;;;;6302109;22;20075;-89
2024/02/02 07:24:57;;;;;;;10.25;2.42;;;5.00;99.90;;;;;;6301201;22;20466;-90
2024/02/02 07:27:44;;;;;;;8.75;1.67;;;5.00;99.90;;;;;;6302108;22;20000;-90
2024/02/02 07:30:30;;;;;;;10.30;1.85;;;5.00;99.90;;;;;;6276087;22;20082;-92
2024/02/02 07:33:00;;;;;;;12.57;2.40;;;5.00;99.90;;;;;;6303226;22;20094;-90
2024/02/02 07:35:33;;;;;;;8.20;2.42;;;5.10;99.90;;;;;;6301969;22;20007;-92
2024/02/02 07:38:06;;;;;;;10.70;1.90;;;5.10;99.90;;;;;;6302314;22;20433;-90
2024/02/02 07:41:12;;;;;;;9.85;1.52;;;5.20;99.90;;;;;;6301906;22;20148;-90
2024/02/02 07:43:38;;;;;;;9.55;1.95;;;5.20;99.90;;;;;;6273319;22;20092;-88
2024/02/02 07:46:04;;;;;;;13.35;2.88;;;5.20;99.90;;;;;;6302176;22;20003;-89
2024/02/02 07:48:30;;;;;;;12.75;1.88;;;5.20;99.90;;;;;;6301764;22;20473;-90
2024/02/02 07:50:56;;;;;;;16.05;2.60;;;5.20;99.90;;;;;;6302179;22;20304;-90
2024/02/02 07:53:23;;;;;;;14.82;2.30;;;5.30;99.90;;;;;;6327979;22;20447;-90
2024/02/02 07:55:48;;;;;;;15.98;3.45;;;5.30;99.90;;;;;;6328245;22;20004;-91
2024/02/02 07:58:16;;;;;;;10.32;2.03;;;5.40;99.90;;;;;;6301861;22;20014;-90
2024/02/02 08:00:42;;;;;;;15.07;2.65;;;5.40;99.90;;;;;;6301945;22;20238;-90
2024/02/02 08:03:08;;;;;;;11.18;2.58;;;5.50;99.90;;;;;;6328558;22;20038;-91
2024/02/02 08:05:37;;;;;;;16.77;2.88;;;5.50;99.90;;;;;;6301688;22;20106;-91
2024/02/02 08:08:04;;;;;;;10.05;2.10;;;5.50;99.90;;;;;;6302095;22;20026;-89
2024/02/02 08:10:30;;;;;;;12.60;2.60;;;5.50;99.90;;;;;;6302347;22;20018;-90
2024/02/02 08:12:56;;;;;;;11.02;3.00;;;5.60;99.90;;;;;;6301270;22;20007;-90
2024/02/02 08:15:22;;;;;;;12.63;2.45;;;5.60;99.90;;;;;;6302290;22;20011;-91
2024/02/02 08:17:49;;;;;;;8.20;1.85;;;5.60;99.90;;;;;;6301841;22;20060;-91
2024/02/02 08:20:15;;;;;;;9.18;2.40;;;5.60;99.90;;;;;;6301761;22;20014;-89
2024/02/02 08:22:43;;;;;;;10.30;2.17;;;5.70;99.90;;;;;;6301677;22;20437;-88
2024/02/02 08:25:10;;;;;;;6.43;1.77;;;5.70;99.90;;;;;;6301517;22;20080;-90
2024/02/02 08:27:37;;;;;;;11.95;2.92;;;5.70;99.90;;;;;;6301373;22;20015;-90
2024/02/02 08:30:05;;;;;;;11.68;3.95;;;5.70;99.90;;;;;;6303366;22;20078;-90
2024/02/02 08:32:32;;;;;;;15.82;3.58;;;5.70;99.90;;;;;;6304202;22;19999;-93
2024/02/02 08:34:58;;;;;;;8.82;2.85;;;5.80;99.90;;;;;;6303423;22;20007;-90
2024/02/02 08:37:23;;;;;;;20.08;2.85;;;5.80;99.90;;;;;;6303441;22;20007;-90
2024/02/02 08:39:50;;;;;;;12.95;2.65;;;5.90;99.90;;;;;;6330910;22;20547;-92
2024/02/02 08:42:23;;;;;;;13.43;3.88;;;5.90;99.90;;;;;;6303551;22;20335;-90
2024/02/02 08:44:55;;;;;;;16.27;3.85;;;5.90;99.90;;;;;;6304149;22;20439;-92
2024/02/02 08:47:22;;;;;;;13.02;4.30;;;6.00;99.90;;;;;;6302904;22;20010;-89
2024/02/02 08:49:53;;;;;;;12.93;3.95;;;6.00;99.90;;;;;;6304058;22;20101;-91
2024/02/02 08:52:33;;;;;;;15.10;3.90;;;6.00;99.90;;;;;;6277916;22;20003;-90
2024/02/02 08:55:06;;;;;;;11.00;3.85;;;6.00;99.90;;;;;;6303600;22;20060;-91
2024/02/02 08:58:07;;;;;;;14.93;3.60;;;6.10;99.90;;;;;;6303035;22;20029;-89
2024/02/02 09:00:38;;;;;;;13.60;3.80;;;6.10;99.90;;;;;;6303547;22;20007;-91
2024/02/02 09:03:24;;;;;;;8.75;3.05;;;6.10;99.90;;;;;;6303909;22;20411;-90
2024/02/02 09:05:58;;;;;;;15.00;3.30;;;6.20;99.90;;;;;;6303172;22;20090;-90
2024/02/02 09:08:33;;;;;;;9.20;2.58;;;6.20;99.90;;;;;;6303525;22;20382;-89
2024/02/02 09:10:59;;;;;;;15.30;3.17;;;6.20;99.90;;;;;;6329218;22;20442;-90
2024/02/02 09:13:30;;;;;;;9.85;2.92;;;6.30;99.90;;;;;;6277680;22;20011;-89
2024/02/02 09:15:56;;;;;;;11.90;3.13;;;6.30;99.90;;;;;;6303036;22;20007;-90
2024/02/02 09:18:32;;;;;;;21.25;5.65;;;6.30;99.90;;;;;;6303005;22;20057;-88
2024/02/02 09:20:58;;;;;;;11.57;3.70;;;6.30;99.90;;;;;;6277875;22;20076;-93
2024/02/02 09:23:24;;;;;;;14.32;4.00;;;6.40;99.90;;;;;;6303233;22;20455;-94
2024/02/02 09:25:50;;;;;;;22.67;7.78;;;6.40;99.90;;;;;;6303163;22;20060;-92
2024/02/02 09:28:41;;;;;;;20.95;5.60;;;6.40;99.90;;;;;;6301691;22;20015;-91
2024/02/02 09:31:09;;;;;;;20.23;5.70;;;6.50;99.90;;;;;;6264724;22;20007;-89
2024/02/02 09:33:52;;;;;;;16.27;5.25;;;6.50;99.90;;;;;;6301922;22;20319;-89
2024/02/02 09:36:24;;;;;;;20.52;5.90;;;6.60;99.90;;;;;;6301640;22;20008;-90
2024/02/02 09:39:06;;;;;;;13.93;4.22;;;6.60;99.90;;;;;;6303155;22;20007;-89
2024/02/02 09:41:41;;;;;;;14.25;5.70;;;6.60;99.90;;;;;;6301433;22;20011;-89
2024/02/02 09:44:31;;;;;;;22.00;6.38;;;6.60;99.90;;;;;;6301863;22;20076;-87
2024/02/02 09:47:09;;;;;;;14.20;5.28;;;6.70;99.90;;;;;;6275659;22;20007;-87
2024/02/02 09:50:10;;;;;;;13.68;3.75;;;6.70;99.90;;;;;;6275573;22;20019;-88
2024/02/02 09:52:55;;;;;;;20.23;5.18;;;6.80;99.90;;;;;;6244222;22;20011;-88
2024/02/02 09:55:32;;;;;;;17.88;6.50;;;6.80;99.90;;;;;;6301523;22;20007;-88
2024/02/02 09:58:12;;;;;;;19.48;6.70;;;6.80;99.90;;;;;;6301442;22;20003;-90
2024/02/02 10:00:56;;;;;;;20.15;7.05;;;6.80;99.90;;;;;;6328322;22;20014;-90
2024/02/02 10:03:53;;;;;;;18.27;6.95;;;6.80;99.90;;;;;;6301230;22;20023;-90
2024/02/02 10:06:50;;;;;;;13.43;5.35;;;7.00;99.90;;;;;;6327074;22;20011;-89
2024/02/02 10:10:15;;;;;;;15.57;5.00;;;7.00;99.90;;;;;;6327431;22;20495;-88
2024/02/02 10:12:43;;;;;;;14.25;4.95;;;7.10;99.90;;;;;;6183341;23;20464;-90
2024/02/02 10:15:26;;;;;;;18.35;6.50;;;7.20;99.90;;;;;;6278392;22;20209;-93
2024/02/02 10:18:23;;;;;;;17.90;6.60;;;7.20;99.90;;;;;;6275570;22;20018;-89
2024/02/02 10:21:17;;;;;;;18.63;7.13;;;7.30;99.90;;;;;;6301867;22;20011;-89
2024/02/02 10:23:45;;;;;;;12.23;6.90;;;7.30;99.90;;;;;;6300610;22;20123;-89
2024/02/02 10:26:28;;;;;;;18.98;7.50;;;7.30;99.90;;;;;;6300659;22;20117;-90
2024/02/02 10:29:03;;;;;;;19.20;7.72;;;7.40;99.90;;;;;;6301065;22;20015;-91
2024/02/02 10:31:57;;;;;;;13.02;6.53;;;7.40;99.90;;;;;;6275017;22;20030;-88
2024/02/02 10:34:44;;;;;;;19.35;6.95;;;7.50;99.90;;;;;;6300471;22;20010;-91
2024/02/02 10:37:28;;;;;;;19.35;9.23;;;7.60;99.90;;;;;;6300961;22;20014;-91
2024/02/02 10:39:56;;;;;;;17.75;9.77;;;7.60;99.90;;;;;;6301632;22;20011;-90
2024/02/02 10:43:03;;;;;;;24.67;11.43;;;7.60;99.90;;;;;;6275014;22;20238;-88
2024/02/02 10:45:44;;;;;;;15.18;8.32;;;7.60;99.90;;;;;;6274991;22;20041;-90
2024/02/02 10:48:13;;;;;;;16.15;7.88;;;7.70;99.90;;;;;;6326610;22;20012;-90
2024/02/02 10:51:00;;;;;;;19.02;9.15;;;7.70;99.90;;;;;;6275741;22;20121;-89
2024/02/02 10:53:48;;;;;;;16.60;8.77;;;7.60;99.90;;;;;;6326133;22;20003;-90
2024/02/02 10:56:32;;;;;;;14.23;8.10;;;7.60;99.90;;;;;;6275062;22;20007;-90
2024/02/02 10:59:37;;;;;;;10.63;6.18;;;7.60;99.90;;;;;;6274661;22;20018;-90
2024/02/02 11:02:14;;;;;;;22.02;10.63;;;7.70;99.90;;;;;;6275356;22;20003;-90
2024/02/02 11:04:52;;;;;;;17.40;9.50;;;7.80;99.90;;;;;;6326940;22;20045;-94
2024/02/02 11:07:19;;;;;;;17.98;8.52;;;7.90;99.90;;;;;;6275085;22;20051;-91
2024/02/02 11:10:04;;;;;;;13.23;7.85;;;7.90;99.90;;;;;;6302057;22;19995;-90
2024/02/02 11:12:53;;;;;;;12.00;7.55;;;8.00;99.90;;;;;;6300560;22;20011;-90
2024/02/02 11:15:34;;;;;;;19.05;9.52;;;8.00;99.90;;;;;;6300680;22;20093;-90
2024/02/02 11:18:25;;;;;;;16.15;8.60;;;7.90;99.90;;;;;;6276122;22;20067;-91
2024/02/02 11:21:03;;;;;;;15.32;8.35;;;8.00;99.90;;;;;;6275365;22;20015;-90
2024/02/02 11:23:56;;;;;;;16.20;10.27;;;8.00;99.90;;;;;;6300504;22;20351;-89
2024/02/02 11:26:28;;;;;;;18.17;10.07;;;7.90;99.90;;;;;;6274841;22;20004;-90
2024/02/02 11:29:00;;;;;;;17.73;10.75;;;7.90;99.90;;;;;;6300405;22;20011;-93
2024/02/02 11:31:33;;;;;;;19.08;10.88;;;7.90;99.90;;;;;;6275377;22;20011;-90
2024/02/02 11:34:38;;;;;;;17.55;10.50;;;8.00;99.90;;;;;;6326522;22;20064;-92
2024/02/02 11:37:38;;;;;;;34.17;16.27;;;8.10;99.90;;;;;;6300387;22;20082;-90
2024/02/02 11:40:08;;;;;;;25.92;13.15;;;8.10;99.90;;;;;;6300674;22;20094;-89
2024/02/02 11:42:37;;;;;;;27.88;15.15;;;8.20;99.90;;;;;;6325885;22;20003;-92
2024/02/02 11:45:04;;;;;;;24.67;14.15;;;8.20;99.90;;;;;;6327434;22;20036;-88
2024/02/02 11:47:47;;;;;;;28.42;16.55;;;8.20;99.90;;;;;;6326404;22;20045;-89
2024/02/02 11:50:17;;;;;;;22.35;13.60;;;8.30;99.90;;;;;;6325972;22;20015;-88
2024/02/02 11:52:48;;;;;;;;;;;8.30;99.90;;;;;;6300919;22;20011;-89
2024/02/02 11:55:29;;;;;;;24.75;14.77;;;8.40;99.90;;;;;;6274235;22;19971;-90
2024/02/02 11:58:02;;;;;;;18.27;12.00;;;8.40;99.90;;;;;;6326820;22;20359;-91
2024/02/02 12:00:34;;;;;;;29.23;17.58;;;8.40;99.90;;;;;;6326548;22;20015;-89
2024/02/02 12:03:03;;;;;;;28.65;16.88;;;8.40;99.90;;;;;;6275541;22;20025;-89
2024/02/02 12:05:44;;;;;;;31.15;19.70;;;8.40;99.90;;;;;;6276879;22;20010;-89
2024/02/02 12:08:52;;;;;;;36.70;21.10;;;8.40;99.90;;;;;;6302929;22;20011;-90
2024/02/02 12:11:22;;;;;;;35.65;19.30;;;8.40;99.90;;;;;;6301825;22;20031;-89
2024/02/02 12:13:52;;;;;;;31.80;19.33;;;8.50;99.90;;;;;;6328804;22;20015;-90
2024/02/02 12:16:18;;;;;;;39.30;21.38;;;8.50;99.90;;;;;;6328223;22;20003;-88
2024/02/02 12:18:44;;;;;;;30.92;19.00;;;8.50;99.90;;;;;;6328596;22;20003;-90
2024/02/02 12:21:15;;;;;;;26.38;15.48;;;8.50;99.90;;;;;;6328692;22;20048;-92
2024/02/02 12:23:46;;;;;;;37.20;21.52;;;8.60;99.90;;;;;;6328179;22;20019;-89
2024/02/02 12:26:13;;;;;;;37.08;21.33;;;8.50;99.90;;;;;;6327833;22;20092;-89
2024/02/02 12:28:39;;;;;;;34.03;20.48;;;8.50;99.90;;;;;;6328919;22;20007;-88
2024/02/02 12:31:05;;;;;;;26.73;18.27;;;8.50;99.90;;;;;;6329014;22;20014;-91
2024/02/02 12:33:31;;;;;;;27.02;17.00;;;8.50;99.90;;;;;;6327880;22;20007;-91
2024/02/02 12:35:58;;;;;;;31.65;18.27;;;8.60;99.90;;;;;;6302528;22;20328;-90
2024/02/02 12:38:24;;;;;;;29.08;16.38;;;8.50;99.90;;;;;;6328324;22;20060;-93
2024/02/02 12:40:50;;;;;;;34.55;20.42;;;8.50;99.90;;;;;;6328642;22;20439;-90
2024/02/02 12:43:26;;;;;;;25.60;15.93;;;8.50;99.90;;;;;;6327850;22;20345;-90
2024/02/02 12:45:53;;;;;;;28.70;17.65;;;8.50;99.90;;;;;;6327594;22;20014;-89
2024/02/02 12:48:20;;;;;;;26.73;16.38;;;8.50;99.90;;;;;;6327946;22;20023;-92
2024/02/02 12:50:49;;;;;;;23.38;14.52;;;8.50;99.90;;;;;;6328995;22;20022;-90
2024/02/02 12:53:16;;;;;;;30.30;17.83;;;8.50;99.90;;;;;;6327858;22;20007;-90
2024/02/02 12:55:45;;;;;;;31.67;18.50;;;8.50;99.90;;;;;;6329495;22;20022;-92
2024/02/02 12:58:11;;;;;;;33.30;19.92;;;8.40;99.90;;;;;;6328467;22;20327;-89
2024/02/02 13:00:38;;;;;;;39.78;20.80;;;8.40;99.90;;;;;;6327668;22;20339;-91
2024/02/02 13:03:05;;;;;;;37.03;21.23;;;8.40;99.90;;;;;;6328233;22;20007;-89
2024/02/02 13:05:32;;;;;;;35.30;19.83;;;8.40;99.90;;;;;;6327659;22;20003;-89